Time;durP1;ratioP1;P1;durP2;ratioP2;P2;SDS_P1;SDS_P2;PMS_P1;PMS_P2;Temp;Humidity;BMP_temperature;BMP_pressure;BME280_temperature;BME280_humidity;BME280_pressure;Samples;Min_cycle;Max_cycle;Signal;HPM_P1;HPM_P2
2023/01/05 00:01:15;;;;;;;26.25;6.47;;;;;;;;;;4976022;28;20423;-75
2023/01/05 00:03:41;;;;;;;27.23;6.30;;;;;;;;;;4994420;28;20457;-75
2023/01/05 00:06:10;;;;;;;33.03;6.60;;;9.40;99.90;;;;;;5073286;28;20488;-75
2023/01/05 00:08:37;;;;;;;30.30;6.07;;;;;;;;;;5008770;28;20462;-75
2023/01/05 00:24:58;;;;;;;30.52;6.50;;;;;;;;;;4975574;28;20432;-74
2023/01/05 00:27:24;;;;;;;29.42;6.72;;;;;;;;;;5025421;28;20414;-74
2023/01/05 00:29:50;;;;;;;29.70;7.60;;;;;;;;;;5049660;28;20826;-74
2023/01/05 00:32:16;;;;;;;27.48;5.97;;;;;;;;;;5092974;28;20435;-74
2023/01/05 00:34:42;;;;;;;40.58;7.50;;;;;;;;;;5066397;28;20513;-74
2023/01/05 00:37:08;;;;;;;26.83;5.90;;;;;;;;;;5002815;28;20435;-74
2023/01/05 00:39:34;;;;;;;40.97;6.88;;;;;;;;;;4988555;28;20805;-74
2023/01/05 00:42:01;;;;;;;31.90;6.07;;;;;;;;;;4989812;28;20424;-75
2023/01/05 00:44:27;;;;;;;28.27;5.67;;;;;;;;;;5011193;28;20533;-74
2023/01/05 00:46:55;;;;;;;24.42;5.60;;;;;;;;;;5023949;28;20718;-74
2023/01/05 00:49:22;;;;;;;32.57;5.87;;;;;;;;;;5019474;28;20429;-74
2023/01/05 00:51:48;;;;;;;25.55;5.18;;;;;;;;;;4988612;28;20481;-74
2023/01/05 00:54:14;;;;;;;26.25;5.00;;;;;;;;;;4990003;28;20445;-75
2023/01/05 00:56:40;;;;;;;27.48;5.32;;;;;;;;;;4996769;28;20425;-75
2023/01/05 00:59:06;;;;;;;27.50;5.35;;;;;;;;;;4993045;28;20461;-74
2023/01/05 01:01:32;;;;;;;25.38;6.00;;;;;;;;;;4991526;28;20796;-75
2023/01/05 01:03:58;;;;;;;22.92;4.63;;;;;;;;;;4991732;28;20450;-75
2023/01/05 01:06:24;;;;;;;27.17;5.07;;;;;;;;;;5028602;28;20406;-74
2023/01/05 01:08:50;;;;;;;25.83;5.22;;;;;;;;;;4979117;28;20575;-75
2023/01/05 01:11:16;;;;;;;28.08;5.18;;;;;;;;;;5042657;28;20414;-75
2023/01/05 01:13:44;;;;;;;22.85;5.07;;;;;;;;;;5047711;28;21010;-75
2023/01/05 01:16:12;;;;;;;21.42;5.07;;;;;;;;;;5018081;28;20445;-75
2023/01/05 01:18:38;;;;;;;22.17;4.30;;;9.40;99.90;;;;;;4973932;28;20421;-75
2023/01/05 01:21:04;;;;;;;26.00;5.70;;;;;;;;;;5004414;28;20500;-75
2023/01/05 01:23:32;;;;;;;26.35;5.50;;;;;;;;;;5051557;28;20421;-75
2023/01/05 01:25:59;;;;;;;25.48;5.10;;;;;;;;;;5068668;28;20418;-74
2023/01/05 01:28:25;;;;;;;32.13;5.28;;;;;;;;;;5069163;28;20414;-74
2023/01/05 01:30:51;;;;;;;21.25;4.80;;;;;;;;;;5026014;28;20430;-75
2023/01/05 01:33:17;;;;;;;23.40;4.93;;;;;;;;;;5008564;28;20455;-75
2023/01/05 01:35:43;;;;;;;23.65;4.68;;;;;;;;;;5004920;28;20425;-73
2023/01/05 01:38:09;;;;;;;26.08;5.50;;;;;;;;;;4971441;28;20431;-73
2023/01/05 01:40:45;;;;;;;29.10;5.28;;;9.30;99.90;;;;;;4981216;28;20462;-74
2023/01/05 01:43:13;;;;;;;24.38;5.53;;;;;;;;;;5002451;28;20419;-74
2023/01/05 01:45:39;;;;;;;29.85;4.93;;;;;;;;;;5000028;28;20421;-74
2023/01/05 01:48:06;;;;;;;26.27;5.15;;;;;;;;;;4987515;28;20742;-74
2023/01/05 01:51:05;;;;;;;26.92;5.10;;;9.70;99.90;;;;;;4979784;28;20432;-74
2023/01/05 01:53:35;;;;;;;27.35;5.18;;;;;;;;;;5024815;28;20982;-74
2023/01/05 01:56:02;;;;;;;31.77;5.50;;;;;;;;;;5036043;28;20898;-75
2023/01/05 01:58:30;;;;;;;26.52;5.45;;;;;;;;;;5010376;28;20425;-74
2023/01/05 02:00:59;;;;;;;26.95;5.53;;;;;;;;;;5039523;28;20418;-74
2023/01/05 02:03:26;;;;;;;30.40;5.82;;;;;;;;;;5008789;28;20423;-74
2023/01/05 02:05:53;;;;;;;27.52;5.05;;;9.20;99.90;;;;;;5020169;28;20468;-74
2023/01/05 02:08:30;;;;;;;29.42;5.35;;;;;;;;;;5020351;28;20504;-74
2023/01/05 02:11:02;;;;;;;26.80;5.10;;;;;;;;;;4989544;28;20448;-74
2023/01/05 02:13:28;;;;;;;28.20;5.90;;;;;;;;;;5064555;28;20974;-74
2023/01/05 02:16:15;;;;;;;27.85;5.47;;;;;;;;;;4994157;28;20550;-74
2023/01/05 02:18:53;;;;;;;32.50;6.10;;;;;;;;;;4989835;28;20429;-75
2023/01/05 02:21:28;;;;;;;28.80;5.80;;;;;;;;;;5017414;28;20588;-75
2023/01/05 02:23:57;;;;;;;28.37;5.50;;;;;;;;;;4986508;28;20443;-74
2023/01/05 02:26:46;;;;;;;27.98;5.60;;;;;;;;;;5015687;28;20414;-75
2023/01/05 02:29:28;;;;;;;25.08;4.65;;;;;;;;;;5008484;28;20471;-75
2023/01/05 02:31:57;;;;;;;25.58;5.18;;;;;;;;;;4975450;28;20460;-75
2023/01/05 02:34:34;;;;;;;24.05;5.47;;;;;;;;;;4988305;28;20448;-75
2023/01/05 02:37:27;;;;;;;26.25;5.05;;;9.20;99.90;;;;;;4962518;28;20919;-75
2023/01/05 02:39:53;;;;;;;32.63;5.65;;;;;;;;;;4987840;28;20443;-75
2023/01/05 02:42:23;;;;;;;28.43;5.43;;;;;;;;;;5011959;28;20485;-75
2023/01/05 02:44:49;;;;;;;23.92;4.85;;;;;;;;;;4981154;28;20825;-75
2023/01/05 02:47:24;;;;;;;24.97;4.57;;;;;;;;;;4985681;28;20437;-74
2023/01/05 02:50:07;;;;;;;27.58;5.07;;;9.40;99.90;;;;;;4986327;28;20440;-75
2023/01/05 02:52:46;;;;;;;29.00;5.70;;;9.40;99.90;;;;;;4979291;28;20514;-74
2023/01/05 02:55:15;;;;;;;25.88;5.40;;;;;;;;;;5058539;28;20418;-75
2023/01/05 02:57:49;;;;;;;26.00;4.80;;;;;;;;;;4984833;28;20803;-75
2023/01/05 03:00:40;;;;;;;25.35;5.28;;;9.40;99.90;;;;;;5030783;28;20626;-75
2023/01/05 03:03:39;;;;;;;26.20;5.55;;;9.40;99.90;;;;;;4989186;28;20411;-75
2023/01/05 03:06:14;;;;;;;28.48;5.75;;;;;;;;;;4968496;28;20413;-75
2023/01/05 03:08:45;;;;;;;32.88;5.57;;;;;;;;;;4995200;28;20429;-75
2023/01/05 03:13:59;;;;;;;30.85;5.35;;;;;;;;;;4976330;28;20432;-74
2023/01/05 03:16:33;;;;;;;30.15;6.28;;;;;;;;;;5057402;28;20445;-75
2023/01/05 03:35:49;;;;;;;31.15;6.15;;;9.60;99.90;;;;;;4981562;28;20433;-79
2023/01/05 03:38:15;;;;;;;32.08;7.00;;;;;;;;;;5002349;28;20424;-79
2023/01/05 03:40:42;;;;;;;30.25;6.45;;;;;;;;;;5056762;28;20468;-75
2023/01/05 03:43:09;;;;;;;34.67;6.10;;;;;;;;;;4982743;28;20420;-74
2023/01/05 03:45:50;;;;;;;30.13;5.95;;;9.10;99.90;;;;;;4974900;28;20754;-75
2023/01/05 03:48:16;;;;;;;33.88;5.88;;;;;;;;;;5004376;28;20905;-74
2023/01/05 03:50:42;;;;;;;29.05;6.22;;;;;;;;;;4988537;28;20438;-75
2023/01/05 03:53:08;;;;;;;31.65;5.75;;;;;;;;;;4974631;28;20447;-75
2023/01/05 03:55:34;;;;;;;29.65;5.80;;;;;;;;;;5038824;28;20422;-80
2023/01/05 03:58:00;;;;;;;29.88;5.82;;;;;;;;;;5060504;28;20425;-75
2023/01/05 04:00:26;;;;;;;30.55;6.05;;;;;;;;;;5030242;28;20418;-79
2023/01/05 04:02:53;;;;;;;36.20;6.13;;;;;;;;;;5067203;28;20394;-79
2023/01/05 04:05:19;;;;;;;33.47;5.90;;;;;;;;;;5064258;28;20448;-79
2023/01/05 04:07:45;;;;;;;32.08;6.13;;;;;;;;;;5075009;28;20405;-80
2023/01/05 04:10:11;;;;;;;32.90;5.88;;;;;;;;;;5087654;28;20424;-79
2023/01/05 04:12:37;;;;;;;33.03;5.90;;;;;;;;;;5021228;28;20463;-80
2023/01/05 04:15:04;;;;;;;28.05;5.78;;;9.80;99.90;;;;;;4965373;28;20430;-80
2023/01/05 04:17:30;;;;;;;30.70;5.87;;;;;;;;;;5003866;28;20816;-80
2023/01/05 04:19:56;;;;;;;31.17;5.85;;;;;;;;;;5015704;28;20454;-80
2023/01/05 04:22:22;;;;;;;32.00;5.80;;;;;;;;;;4964195;28;21014;-80
2023/01/05 04:24:48;;;;;;;32.83;6.20;;;;;;;;;;5007607;28;20415;-80
2023/01/05 04:27:14;;;;;;;23.15;4.85;;;;;;;;;;4990128;28;20406;-80
2023/01/05 04:29:41;;;;;;;28.95;5.55;;;;;;;;;;5014096;28;20414;-80
2023/01/05 04:32:07;;;;;;;25.35;6.13;;;;;;;;;;5015206;28;20414;-80
2023/01/05 04:34:33;;;;;;;28.63;5.22;;;;;;;;;;5030963;28;20414;-80
2023/01/05 04:36:59;;;;;;;23.75;4.72;;;;;;;;;;5042678;28;20988;-80
2023/01/05 04:39:25;;;;;;;29.65;4.93;;;;;;;;;;4995814;28;20452;-80
2023/01/05 04:41:51;;;;;;;27.80;5.13;;;;;;;;;;5049881;28;20438;-80
2023/01/05 04:44:17;;;;;;;27.38;5.40;;;;;;;;;;4995159;28;20428;-80
2023/01/05 04:46:43;;;;;;;29.38;5.50;;;;;;;;;;4980292;28;20430;-75
2023/01/05 04:49:10;;;;;;;27.42;5.68;;;;;;;;;;4983887;28;20457;-75
2023/01/05 04:51:36;;;;;;;23.35;4.63;;;;;;;;;;5030048;28;20914;-75
2023/01/05 04:54:02;;;;;;;22.00;4.82;;;;;;;;;;5070406;28;20436;-75
2023/01/05 04:56:28;;;;;;;25.17;4.95;;;;;;;;;;5023204;28;20531;-75
2023/01/05 04:58:55;;;;;;;22.80;4.93;;;;;;;;;;4959432;28;20954;-75
2023/01/05 05:01:21;;;;;;;26.65;5.20;;;;;;;;;;5076450;28;20424;-75
2023/01/05 05:03:47;;;;;;;23.80;5.22;;;;;;;;;;5008080;28;20404;-75
2023/01/05 05:06:13;;;;;;;26.80;5.72;;;;;;;;;;5025002;28;20422;-75
2023/01/05 05:08:39;;;;;;;22.67;5.28;;;;;;;;;;4989743;28;20954;-74
2023/01/05 05:11:05;;;;;;;21.60;4.68;;;;;;;;;;5009349;28;20436;-74
2023/01/05 05:13:31;;;;;;;23.57;4.80;;;;;;;;;;4985526;28;20508;-74
2023/01/05 05:15:57;;;;;;;20.63;4.68;;;;;;;;;;4976749;28;20420;-75
2023/01/05 05:18:24;;;;;;;23.45;5.38;;;;;;;;;;5050663;28;20781;-75
2023/01/05 05:20:51;;;;;;;24.02;4.57;;;9.60;99.90;;;;;;5054052;28;20905;-74
2023/01/05 05:23:17;;;;;;;30.10;5.63;;;;;;;;;;5011147;28;20464;-75
2023/01/05 05:25:43;;;;;;;28.05;5.50;;;;;;;;;;4986638;28;20417;-74
2023/01/05 05:28:10;;;;;;;23.52;5.80;;;;;;;;;;4984095;28;20431;-74
2023/01/05 05:30:39;;;;;;;32.25;6.25;;;;;;;;;;5086165;28;20418;-74
2023/01/05 05:33:05;;;;;;;24.27;4.93;;;;;;;;;;5003451;28;20454;-74
2023/01/05 05:35:31;;;;;;;25.92;5.38;;;;;;;;;;4989144;28;20505;-74
2023/01/05 05:37:57;;;;;;;25.80;5.22;;;;;;;;;;4978089;28;20470;-75
2023/01/05 05:40:25;;;;;;;20.10;5.47;;;;;;;;;;4975338;28;20431;-74
2023/01/05 05:42:51;;;;;;;29.60;6.50;;;;;;;;;;5005054;28;20515;-75
2023/01/05 05:45:17;;;;;;;25.67;5.20;;;;;;;;;;4992498;28;20423;-75
2023/01/05 05:47:43;;;;;;;26.23;4.72;;;;;;;;;;4972820;28;20920;-75
2023/01/05 05:50:09;;;;;;;22.27;4.80;;;;;;;;;;4970287;28;20509;-75
2023/01/05 05:52:36;;;;;;;31.63;5.47;;;;;;;;;;4980947;28;20421;-79
2023/01/05 05:55:02;;;;;;;25.05;4.85;;;;;;;;;;4974067;28;20773;-79
2023/01/05 05:57:28;;;;;;;28.27;4.93;;;;;;;;;;4972449;28;20432;-75
2023/01/05 05:59:54;;;;;;;27.38;5.30;;;;;;;;;;4978187;28;20905;-75
2023/01/05 06:02:20;;;;;;;30.65;5.30;;;;;;;;;;4976693;28;20426;-74
2023/01/05 06:04:46;;;;;;;25.33;5.13;;;;;;;;;;4971224;28;20407;-75
2023/01/05 06:07:12;;;;;;;25.27;5.35;;;;;;;;;;4956702;28;20407;-75
2023/01/05 06:09:38;;;;;;;31.48;5.75;;;;;;;;;;4990203;28;20445;-75
2023/01/05 06:12:04;;;;;;;24.25;4.90;;;;;;;;;;5085941;28;20432;-75
2023/01/05 06:14:30;;;;;;;25.17;5.45;;;;;;;;;;5016885;28;20894;-75
2023/01/05 06:16:56;;;;;;;31.30;5.78;;;;;;;;;;4997268;28;20454;-75
2023/01/05 06:19:22;;;;;;;32.78;5.75;;;;;;;;;;4963508;28;20434;-76
2023/01/05 06:21:48;;;;;;;27.42;6.03;;;;;;;;;;4997918;28;20902;-74
2023/01/05 06:24:14;;;;;;;27.90;5.67;;;;;;;;;;5038349;28;20718;-73
2023/01/05 06:26:40;;;;;;;29.38;5.18;;;;;;;;;;5004924;28;20438;-74
2023/01/05 06:29:07;;;;;;;30.88;5.65;;;;;;;;;;5016315;28;20501;-75
2023/01/05 06:31:33;;;;;;;30.17;5.95;;;;;;;;;;4984532;28;20915;-75
2023/01/05 06:33:59;;;;;;;29.05;5.78;;;;;;;;;;5013690;28;20432;-76
2023/01/05 06:36:25;;;;;;;32.22;5.75;;;;;;;;;;5019011;28;20903;-76
2023/01/05 06:38:51;;;;;;;23.58;5.53;;;;;;;;;;4996796;28;20430;-76
2023/01/05 06:41:17;;;;;;;23.77;5.53;;;;;;;;;;4996620;28;20833;-75
2023/01/05 06:43:43;;;;;;;22.90;4.90;;;;;;;;;;4975931;28;20456;-76
2023/01/05 06:46:09;;;;;;;25.85;5.07;;;;;;;;;;5021545;28;20437;-76
2023/01/05 06:48:35;;;;;;;28.43;5.07;;;;;;;;;;5063942;28;20417;-76
2023/01/05 06:51:01;;;;;;;22.27;4.78;;;;;;;;;;4952653;28;20432;-76
2023/01/05 06:53:27;;;;;;;25.17;5.57;;;;;;;;;;5003199;28;20755;-76
2023/01/05 06:55:53;;;;;;;24.05;4.85;;;;;;;;;;4988280;28;20516;-76
2023/01/05 06:58:20;;;;;;;22.27;4.55;;;;;;;;;;5033410;28;20428;-76
2023/01/05 07:00:46;;;;;;;21.55;4.50;;;;;;;;;;4987744;28;20453;-76
2023/01/05 07:03:12;;;;;;;24.38;4.57;;;9.60;99.90;;;;;;4988172;28;20774;-76
2023/01/05 07:05:39;;;;;;;29.65;4.60;;;;;;;;;;4964783;28;20438;-75
2023/01/05 07:08:05;;;;;;;24.50;4.78;;;;;;;;;;4992550;28;20421;-75
2023/01/05 07:10:31;;;;;;;22.75;5.55;;;;;;;;;;4978700;28;20521;-76
2023/01/05 07:12:57;;;;;;;23.52;5.00;;;;;;;;;;5022314;28;20422;-75
2023/01/05 07:15:23;;;;;;;21.58;4.80;;;;;;;;;;5087238;28;20456;-75
2023/01/05 07:17:49;;;;;;;19.48;4.90;;;;;;;;;;4990218;28;20426;-76
2023/01/05 07:20:15;;;;;;;21.70;4.90;;;;;;;;;;4977925;28;20425;-80
2023/01/05 07:22:42;;;;;;;20.55;4.32;;;;;;;;;;4989503;28;20474;-81
2023/01/05 07:25:08;;;;;;;22.65;4.68;;;;;;;;;;4984708;28;20418;-80
2023/01/05 07:27:34;;;;;;;19.58;4.70;;;;;;;;;;4954472;28;20430;-80
2023/01/05 07:30:00;;;;;;;21.23;4.25;;;;;;;;;;5074671;28;20470;-80
2023/01/05 07:32:26;;;;;;;17.07;4.47;;;;;;;;;;4962994;28;20502;-80
2023/01/05 07:34:52;;;;;;;21.98;4.47;;;;;;;;;;4986806;28;20440;-80
2023/01/05 07:37:18;;;;;;;22.15;4.13;;;;;;;;;;5022636;28;20497;-80
2023/01/05 07:39:47;;;;;;;26.63;4.80;;;;;;;;;;5039571;28;20790;-80
2023/01/05 07:42:13;;;;;;;22.98;5.18;;;;;;;;;;4974508;28;20407;-80
2023/01/05 07:44:40;;;;;;;21.63;4.53;;;;;;;;;;4973338;28;20915;-81
2023/01/05 07:47:06;;;;;;;23.42;4.68;;;;;;;;;;4991499;28;20460;-81
2023/01/05 07:49:32;;;;;;;26.23;5.00;;;;;;;;;;4998885;28;20766;-81
2023/01/05 07:51:58;;;;;;;25.75;4.57;;;;;;;;;;4975351;28;20491;-81
2023/01/05 07:54:26;;;;;;;20.60;4.75;;;;;;;;;;4973269;28;20419;-80
2023/01/05 07:56:52;;;;;;;24.00;4.50;;;;;;;;;;5023309;28;20836;-81
2023/01/05 07:59:18;;;;;;;27.65;4.55;;;;;;;;;;4972170;28;20432;-81
2023/01/05 08:01:44;;;;;;;24.08;4.53;;;;;;;;;;4967929;28;20949;-80
2023/01/05 08:04:10;;;;;;;23.70;4.63;;;;;;;;;;4993286;28;20963;-81
2023/01/05 08:06:36;;;;;;;23.02;4.35;;;;;;;;;;4986614;28;20793;-80
2023/01/05 08:10:27;;;;;;;20.75;4.32;;;;;;;;;;4974749;28;20436;-81
2023/01/05 08:11:49;;;;;;;23.90;4.47;;;;;;;;;;4985288;28;20510;-80
2023/01/05 08:14:15;;;;;;;22.98;4.18;;;;;;;;;;4973551;28;20763;-80
2023/01/05 08:16:41;;;;;;;23.35;4.70;;;;;;;;;;4985970;28;20486;-81
2023/01/05 08:19:09;;;;;;;22.88;4.68;;;9.40;99.90;;;;;;4990638;28;20442;-81
2023/01/05 08:21:35;;;;;;;21.48;4.10;;;;;;;;;;5031667;28;20417;-81
2023/01/05 08:24:01;;;;;;;21.55;4.65;;;;;;;;;;5000269;28;20414;-82
2023/01/05 08:26:27;;;;;;;30.58;5.40;;;;;;;;;;4975206;28;20614;-82
2023/01/05 08:28:53;;;;;;;22.38;4.70;;;;;;;;;;4993979;28;20430;-82
2023/01/05 08:31:25;;;;;;;19.75;4.20;;;9.90;99.90;;;;;;4962761;28;20427;-82
2023/01/05 08:33:54;;;;;;;20.60;4.60;;;;;;;;;;4979875;28;20438;-81
2023/01/05 08:36:20;;;;;;;21.70;4.35;;;;;;;;;;4986093;28;20420;-81
2023/01/05 08:38:47;;;;;;;21.50;4.50;;;;;;;;;;4981114;28;20432;-81
2023/01/05 08:41:17;;;;;;;24.60;5.07;;;;;;;;;;5030981;28;20433;-82
2023/01/05 08:43:43;;;;;;;29.77;4.97;;;;;;;;;;4991413;28;20429;-82
2023/01/05 08:46:09;;;;;;;25.58;4.93;;;;;;;;;;4989052;28;20484;-82
2023/01/05 08:48:35;;;;;;;24.35;4.30;;;;;;;;;;4958633;28;20556;-82
2023/01/05 08:51:06;;;;;;;24.85;4.80;;;;;;;;;;4958533;28;20497;-83
2023/01/05 08:53:33;;;;;;;25.10;5.00;;;;;;;;;;4997872;28;20426;-83
2023/01/05 08:56:00;;;;;;;21.83;4.87;;;;;;;;;;5039593;28;20421;-83
2023/01/05 08:58:26;;;;;;;20.37;4.47;;;;;;;;;;4995008;28;20530;-82
2023/01/05 09:00:52;;;;;;;22.10;4.35;;;;;;;;;;4993828;28;20813;-84
2023/01/05 09:03:18;;;;;;;23.77;4.43;;;;;;;;;;5051484;28;20404;-83
2023/01/05 09:05:45;;;;;;;26.80;4.68;;;;;;;;;;4967126;28;20855;-83
2023/01/05 09:08:11;;;;;;;22.90;5.03;;;;;;;;;;4983440;28;20767;-83
2023/01/05 09:10:37;;;;;;;23.77;5.00;;;;;;;;;;4974861;28;20496;-83
2023/01/05 09:13:03;;;;;;;25.27;5.10;;;;;;;;;;5004871;28;20932;-83
2023/01/05 09:15:29;;;;;;;20.65;5.30;;;;;;;;;;5029431;28;20503;-82
2023/01/05 09:17:55;;;;;;;23.40;4.60;;;;;;;;;;5049221;28;20477;-83
2023/01/05 09:20:21;;;;;;;26.77;4.88;;;;;;;;;;4975780;28;20435;-84
2023/01/05 09:22:47;;;;;;;22.98;4.72;;;;;;;;;;4993313;28;20453;-83
2023/01/05 09:25:13;;;;;;;18.45;4.15;;;;;;;;;;4987088;28;20434;-83
2023/01/05 09:27:40;;;;;;;22.17;4.80;;;;;;;;;;4976855;28;20418;-82
2023/01/05 09:30:07;;;;;;;25.05;4.50;;;;;;;;;;4985360;28;20432;-83
2023/01/05 09:32:33;;;;;;;22.45;5.10;;;;;;;;;;4974287;28;20440;-84
2023/01/05 09:34:59;;;;;;;24.50;4.30;;;;;;;;;;4997295;28;20520;-82
2023/01/05 09:37:25;;;;;;;24.30;4.53;;;;;;;;;;5010771;28;20418;-83
2023/01/05 09:39:51;;;;;;;23.30;4.07;;;;;;;;;;4972943;28;20443;-83
2023/01/05 09:42:20;;;;;;;24.98;4.82;;;;;;;;;;4971320;28;20921;-83
2023/01/05 09:44:51;;;;;;;20.33;4.45;;;;;;;;;;4980473;28;20426;-84
2023/01/05 09:47:20;;;;;;;22.13;4.10;;;;;;;;;;4986066;28;20431;-83
2023/01/05 09:49:48;;;;;;;22.60;5.27;;;;;;;;;;4971528;28;20895;-83
2023/01/05 09:52:14;;;;;;;19.27;4.25;;;;;;;;;;4966564;28;20435;-83
2023/01/05 09:54:40;;;;;;;28.40;5.00;;;;;;;;;;4955205;28;20491;-83
2023/01/05 09:57:15;;;;;;;19.73;4.75;;;10.10;99.90;;;;;;4996606;28;20435;-85
2023/01/05 09:59:45;;;;;;;20.35;4.22;;;10.30;99.90;;;;;;5008414;28;21093;-83
2023/01/05 10:02:29;;;;;;;21.45;4.70;;;;;;;;;;4977007;28;20917;-84
2023/01/05 10:04:56;;;;;;;22.67;4.20;;;;;;;;;;4975569;28;20513;-83
2023/01/05 10:07:25;;;;;;;27.33;4.35;;;;;;;;;;4952679;28;20503;-82
2023/01/05 10:09:53;;;;;;;23.73;4.43;;;;;;;;;;4979267;28;20438;-83
2023/01/05 10:15:11;;;;;;;26.10;4.47;;;;;;;;;;4990256;28;20478;-84
2023/01/05 10:17:38;;;;;;;21.55;4.22;;;;;;;;;;4977855;28;20515;-83
2023/01/05 10:20:16;;;;;;;22.37;4.27;;;;;;;;;;4994681;28;20430;-82
2023/01/05 10:22:42;;;;;;;25.27;4.13;;;;;;;;;;4979972;28;20774;-82
2023/01/05 10:25:24;;;;;;;23.70;4.32;;;;;;;;;;4971554;28;20426;-82
2023/01/05 10:27:56;;;;;;;23.08;4.60;;;;;;;;;;4992249;28;20436;-81
2023/01/05 10:30:33;;;;;;;20.40;4.45;;;;;;;;;;4977546;28;20425;-83
2023/01/05 10:33:01;;;;;;;26.48;5.18;;;;;;;;;;5021052;28;20417;-83
2023/01/05 10:35:59;;;;;;;22.00;4.40;;;10.50;99.90;;;;;;4976544;28;20421;-83
2023/01/05 10:38:31;;;;;;;19.00;4.20;;;;;;;;;;4977592;28;20430;-84
2023/01/05 10:40:57;;;;;;;23.35;4.90;;;;;;;;;;4992618;28;20436;-84
2023/01/05 10:43:57;;;;;;;22.33;4.00;;;10.40;99.90;;;;;;4998884;28;20506;-83
2023/01/05 10:46:23;;;;;;;18.63;3.70;;;;;;;;;;4981829;28;20432;-83
2023/01/05 10:48:49;;;;;;;16.55;3.63;;;;;;;;;;4994997;28;20421;-83
2023/01/05 10:51:15;;;;;;;23.27;4.03;;;;;;;;;;4998434;28;20567;-83
2023/01/05 10:53:43;;;;;;;17.60;3.60;;;;;;;;;;5009744;28;20421;-83
2023/01/05 10:56:09;;;;;;;17.15;3.60;;;;;;;;;;5015543;28;20426;-84
2023/01/05 10:58:37;;;;;;;18.98;3.65;;;10.40;99.90;;;;;;4970226;28;20434;-83
2023/01/05 11:01:05;;;;;;;14.75;3.55;;;;;;;;;;4966443;28;20430;-84
2023/01/05 11:03:45;;;;;;;12.05;3.05;;;;;;;;;;4962767;28;20505;-84
2023/01/05 11:06:27;;;;;;;14.97;3.10;;;;;;;;;;4975370;28;20424;-83
2023/01/05 11:08:53;;;;;;;15.32;2.92;;;;;;;;;;4996273;28;20435;-83
2023/01/05 11:11:20;;;;;;;13.32;2.90;;;;;;;;;;4962097;28;20426;-83
2023/01/05 11:13:47;;;;;;;14.23;3.10;;;;;;;;;;5009388;28;20505;-82
2023/01/05 11:16:21;;;;;;;14.68;3.85;;;;;;;;;;4985619;28;20430;-83
2023/01/05 11:19:07;;;;;;;17.40;3.47;;;;;;;;;;4963920;28;20436;-83
2023/01/05 11:21:38;;;;;;;17.70;3.60;;;;;;;;;;4970213;28;20824;-82
2023/01/05 11:24:04;;;;;;;16.30;3.60;;;;;;;;;;4993192;28;20492;-82
2023/01/05 11:26:34;;;;;;;17.40;3.60;;;;;;;;;;4981596;28;20427;-82
2023/01/05 11:29:02;;;;;;;15.43;3.92;;;;;;;;;;4973192;28;20428;-82
2023/01/05 11:31:31;;;;;;;18.63;3.83;;;;;;;;;;4996901;28;20482;-82
2023/01/05 11:33:58;;;;;;;19.17;4.15;;;;;;;;;;5044379;28;20436;-82
2023/01/05 11:36:25;;;;;;;17.27;3.78;;;;;;;;;;5021604;28;20876;-82
2023/01/05 11:38:54;;;;;;;19.40;4.05;;;;;;;;;;4980304;28;20436;-81
2023/01/05 11:41:21;;;;;;;18.63;4.22;;;;;;;;;;4966134;28;20438;-81
2023/01/05 11:43:48;;;;;;;19.63;3.85;;;;;;;;;;4973507;28;20419;-79
2023/01/05 11:46:14;;;;;;;19.63;4.37;;;;;;;;;;4976208;28;20430;-79
2023/01/05 11:48:54;;;;;;;19.95;4.03;;;10.40;99.90;;;;;;4965892;28;20484;-80
2023/01/05 11:51:37;;;;;;;20.35;3.72;;;;;;;;;;5002740;28;20414;-80
2023/01/05 11:54:03;;;;;;;18.58;4.45;;;;;;;;;;4992106;28;20454;-80
2023/01/05 11:56:30;;;;;;;19.80;4.97;;;;;;;;;;5009008;28;20421;-81
2023/01/05 11:58:56;;;;;;;21.90;5.93;;;;;;;;;;5010265;28;20490;-81
2023/01/05 12:01:26;;;;;;;23.67;5.63;;;;;;;;;;5004844;28;20918;-82
2023/01/05 12:03:52;;;;;;;22.50;4.50;;;;;;;;;;5027202;28;20491;-81
2023/01/05 12:06:35;;;;;;;19.73;4.47;;;;;;;;;;4988141;28;20437;-81
2023/01/05 12:09:25;;;;;;;18.70;4.20;;;10.60;99.90;;;;;;5007606;28;20445;-82
2023/01/05 12:11:54;;;;;;;16.52;4.03;;;;;;;;;;4998667;28;20453;-81
2023/01/05 12:14:49;;;;;;;19.77;4.07;;;;;;;;;;4983996;28;20921;-81
2023/01/05 12:17:25;;;;;;;16.35;3.90;;;10.70;99.90;;;;;;5033976;28;20421;-81
2023/01/05 12:20:20;;;;;;;18.67;3.67;;;;;;;;;;5006703;28;20472;-80
2023/01/05 12:22:49;;;;;;;17.88;3.88;;;;;;;;;;4978066;28;20428;-81
2023/01/05 12:25:24;;;;;;;20.63;4.15;;;;;;;;;;4972715;28;20417;-80
2023/01/05 12:28:02;;;;;;;22.30;4.40;;;;;;;;;;4977909;28;20429;-82
2023/01/05 12:30:48;;;;;;;23.83;4.55;;;10.70;99.90;;;;;;4991004;28;20457;-80
2023/01/05 12:33:21;;;;;;;17.38;4.38;;;;;;;;;;4986104;28;20413;-81
2023/01/05 12:35:50;;;;;;;20.83;4.13;;;;;;;;;;4997681;28;20474;-80
2023/01/05 12:38:23;;;;;;;25.13;5.20;;;;;;;;;;4981277;28;20452;-82
2023/01/05 12:40:55;;;;;;;16.45;4.18;;;;;;;;;;5004730;28;20429;-81
2023/01/05 12:43:41;;;;;;;21.23;4.20;;;;;;;;;;4982876;28;20425;-80
2023/01/05 12:46:17;;;;;;;20.33;3.95;;;;;;;;;;4962988;28;20519;-81
2023/01/05 12:49:05;;;;;;;18.17;4.30;;;;;;;;;;4981041;28;20458;-81
2023/01/05 12:51:39;;;;;;;19.23;4.22;;;;;;;;;;4970134;28;20501;-81
2023/01/05 12:54:05;;;;;;;19.65;4.63;;;;;;;;;;4982810;28;20471;-81
2023/01/05 12:56:46;;;;;;;20.63;4.20;;;;;;;;;;4972438;28;20464;-81
2023/01/05 12:59:29;;;;;;;25.67;4.45;;;;;;;;;;4976986;28;20450;-82
2023/01/05 13:02:13;;;;;;;22.60;4.25;;;10.50;99.90;;;;;;4983272;28;20923;-81
2023/01/05 13:04:42;;;;;;;23.25;4.50;;;;;;;;;;4969875;28;20496;-82
2023/01/05 13:07:25;;;;;;;20.65;4.07;;;10.60;99.90;;;;;;4981770;28;20439;-82
2023/01/05 13:10:16;;;;;;;18.88;4.10;;;10.30;99.90;;;;;;4986623;28;20433;-82
2023/01/05 13:12:42;;;;;;;19.77;4.78;;;;;;;;;;4965879;28;20429;-82
2023/01/05 13:15:14;;;;;;;21.90;4.50;;;;;;;;;;4981762;28;20429;-82
2023/01/05 13:17:51;;;;;;;20.45;4.65;;;;;;;;;;4997913;28;20490;-82
2023/01/05 13:20:17;;;;;;;21.98;4.60;;;;;;;;;;4996526;28;20464;-76
2023/01/05 13:22:43;;;;;;;17.17;4.30;;;;;;;;;;4986908;28;20438;-76
2023/01/05 13:25:16;;;;;;;20.83;4.77;;;;;;;;;;4986620;28;20423;-76
2023/01/05 13:27:42;;;;;;;21.83;4.85;;;;;;;;;;4975795;28;20421;-76
2023/01/05 13:30:12;;;;;;;25.50;6.43;;;;;;;;;;4965547;28;20421;-76
2023/01/05 13:32:38;;;;;;;23.20;4.23;;;;;;;;;;5000879;28;20591;-76
2023/01/05 13:35:07;;;;;;;22.88;4.97;;;;;;;;;;4994671;28;20463;-81
2023/01/05 13:37:39;;;;;;;20.80;4.30;;;;;;;;;;4996796;28;20455;-81
2023/01/05 13:40:11;;;;;;;22.33;4.20;;;;;;;;;;4999280;28;20832;-81
2023/01/05 13:42:57;;;;;;;19.23;4.07;;;;;;;;;;4989801;28;20424;-80
2023/01/05 13:45:26;;;;;;;20.27;4.60;;;;;;;;;;4968448;28;22418;-80
2023/01/05 13:48:11;;;;;;;17.13;4.47;;;;;;;;;;4985472;28;20501;-82
2023/01/05 13:50:37;;;;;;;21.00;4.07;;;;;;;;;;4997267;28;20430;-82
2023/01/05 13:53:04;;;;;;;22.30;4.53;;;;;;;;;;4987427;28;20428;-82
2023/01/05 13:55:31;;;;;;;25.53;4.97;;;;;;;;;;5012939;28;20773;-82
2023/01/05 13:57:58;;;;;;;22.05;5.05;;;;;;;;;;4986337;28;20429;-81
2023/01/05 14:00:32;;;;;;;26.50;4.70;;;;;;;;;;5033488;28;20430;-81
2023/01/05 14:03:01;;;;;;;26.00;5.43;;;;;;;;;;4994706;28;20554;-81
2023/01/05 14:05:27;;;;;;;25.60;5.25;;;;;;;;;;4999135;28;20458;-81
2023/01/05 14:07:54;;;;;;;27.40;5.00;;;;;;;;;;4984344;28;20507;-81
2023/01/05 14:10:29;;;;;;;20.88;4.70;;;10.50;99.90;;;;;;5021699;28;20436;-81
2023/01/05 14:12:55;;;;;;;24.67;5.27;;;;;;;;;;4990085;28;20434;-81
2023/01/05 14:15:36;;;;;;;25.42;5.13;;;;;;;;;;5019001;28;20921;-81
2023/01/05 14:18:09;;;;;;;19.35;4.65;;;;;;;;;;5013102;28;20837;-81
2023/01/05 14:20:40;;;;;;;25.10;4.93;;;10.60;99.90;;;;;;4972505;28;20462;-81
2023/01/05 14:23:22;;;;;;;30.20;5.77;;;;;;;;;;4968926;28;20445;-82
2023/01/05 14:26:16;;;;;;;28.67;5.03;;;10.30;99.90;;;;;;4997546;28;20466;-82
2023/01/05 14:28:47;;;;;;;22.60;5.22;;;;;;;;;;5003976;28;20439;-81
2023/01/05 14:31:14;;;;;;;28.95;4.70;;;;;;;;;;4965746;28;20921;-81
2023/01/05 14:33:46;;;;;;;22.70;4.53;;;;;;;;;;4964965;28;20432;-81
2023/01/05 14:36:38;;;;;;;18.00;4.47;;;;;;;;;;4972650;28;20435;-82
2023/01/05 14:39:06;;;;;;;25.10;5.25;;;;;;;;;;5024399;28;20434;-82
2023/01/05 14:41:33;;;;;;;24.80;4.80;;;;;;;;;;4995238;28;20430;-82
2023/01/05 14:44:06;;;;;;;20.38;4.45;;;;;;;;;;5020381;28;20479;-82
2023/01/05 14:46:47;;;;;;;22.67;4.90;;;;;;;;;;4994646;28;20424;-82
2023/01/05 14:49:29;;;;;;;18.80;4.35;;;;;;;;;;4996920;28;20411;-84
2023/01/05 14:51:57;;;;;;;31.70;5.47;;;;;;;;;;4973751;28;20513;-83
2023/01/05 14:54:36;;;;;;;26.05;5.10;;;;;;;;;;4979820;28;20442;-82
2023/01/05 14:57:21;;;;;;;27.40;5.53;;;;;;;;;;4965474;28;20419;-83
2023/01/05 14:59:48;;;;;;;24.73;4.90;;;;;;;;;;4992018;28;20414;-81
2023/01/05 15:02:21;;;;;;;21.37;4.53;;;10.30;99.90;;;;;;4992782;28;20501;-81
2023/01/05 15:04:50;;;;;;;29.60;6.30;;;;;;;;;;4974198;28;20421;-81
2023/01/05 15:07:31;;;;;;;25.42;5.15;;;;;;;;;;4982239;28;20464;-80
2023/01/05 15:10:14;;;;;;;21.38;4.70;;;10.00;99.90;;;;;;4980219;28;20428;-82